Flight Track Log - Related Links

Times and Time Zones

All times are in EDT time to prevent confusion due to time zone crossing. See the SAS837 flight status page for this flight to view local times or setup timezone preferences in your user account.

Time Position Orientation Groundspeed Altitude Reporting Facility
EDT Latitude Longitude Course Direction KTS MPH feet Rate Location/Type
Wed 05:03:32 AM 60.0507 10.9513 207° Southwest  Level Estimated
Wed 05:04:32 AM 59.9572 10.8548 207° Southwest  Level Estimated
Wed 05:05:32 AM 59.8637 10.7589 207° Southwest  Level Estimated
Wed 05:06:32 AM 59.7701 10.6635 207° Southwest  Level Estimated
Wed 05:07:32 AM 59.6764 10.5686 207° Southwest  Level Estimated
Wed 05:08:32 AM 59.5826 10.4743 207° Southwest  Level Estimated
Wed 05:09:32 AM 59.4888 10.3804 207° Southwest  Level Estimated
Wed 05:10:32 AM 59.3949 10.2871 207° Southwest  Level Estimated
Wed 05:11:32 AM 59.3010 10.1944 207° Southwest  Level Estimated
Wed 05:12:32 AM 59.2070 10.1021 207° Southwest  Level Estimated
Wed 05:13:32 AM 59.1120 10.0095 207° Southwest  Level Estimated
Wed 05:14:32 AM 59.0171 9.9174 206° Southwest  Level Estimated
Wed 05:15:32 AM 58.9220 9.8259 206° Southwest  Level Estimated
Wed 05:16:32 AM 58.8269 9.7348 206° Southwest  Level Estimated
Wed 05:17:32 AM 58.7318 9.6443 206° Southwest  Level Estimated
Wed 05:18:32 AM 58.6366 9.5542 206° Southwest  Level Estimated
Wed 05:19:32 AM 58.5413 9.4647 206° Southwest  Level Estimated
Wed 05:20:32 AM 58.4459 9.3756 206° Southwest  Level Estimated
Wed 05:21:32 AM 58.3505 9.2870 206° Southwest  Level Estimated
Wed 05:22:32 AM 58.2550 9.1989 206° Southwest  Level Estimated
Wed 05:23:32 AM 58.1595 9.1112 206° Southwest  Level Estimated
Wed 05:24:32 AM 58.0639 9.0241 206° Southwest  Level Estimated
Wed 05:25:32 AM 57.9683 8.9374 206° Southwest  Level Estimated
Wed 05:26:32 AM 57.8726 8.8511 206° Southwest  Level Estimated
Wed 05:27:32 AM 57.7768 8.7653 205° Southwest  Level Estimated
Wed 05:28:32 AM 57.6810 8.6800 205° Southwest  Level Estimated
Wed 05:29:32 AM 57.5851 8.5951 205° Southwest  Level Estimated
Wed 05:30:32 AM 57.4891 8.5106 205° Southwest  Level Estimated
Wed 05:31:32 AM 57.3931 8.4267 205° Southwest  Level Estimated
Wed 05:32:32 AM 57.2971 8.3431 205° Southwest  Level Estimated
Wed 05:33:32 AM 57.2010 8.2600 205° Southwest  Level Estimated
Wed 05:34:32 AM 57.1048 8.1773 205° Southwest  Level Estimated
Wed 05:35:32 AM 57.0086 8.0950 205° Southwest  Level Estimated
Wed 05:36:32 AM 56.9123 8.0132 205° Southwest  Level Estimated
Wed 05:37:32 AM 56.8160 7.9318 205° Southwest  Level Estimated
Wed 05:38:32 AM 56.7196 7.8508 205° Southwest  Level Estimated
Wed 05:39:32 AM 56.6232 7.7702 205° Southwest  Level Estimated
Wed 05:40:32 AM 56.5267 7.6900 205° Southwest  Level Estimated
Wed 05:41:32 AM 56.4302 7.6102 204° Southwest  Level Estimated
Wed 05:42:32 AM 56.3336 7.5309 204° Southwest  Level Estimated
Wed 05:43:32 AM 56.2370 7.4519 204° Southwest  Level Estimated
Wed 05:44:32 AM 56.1403 7.3734 204° Southwest  Level Estimated
Wed 05:45:32 AM 56.0436 7.2952 204° Southwest  Level Estimated
Wed 05:46:32 AM 55.9468 7.2174 204° Southwest  Level Estimated
Wed 05:47:32 AM 55.8500 7.1400 204° Southwest  Level Estimated
Wed 05:48:32 AM 55.7531 7.0630 204° Southwest  Level Estimated
Wed 05:49:32 AM 55.6562 6.9864 204° Southwest  Level Estimated
Wed 05:50:32 AM 55.5592 6.9101 204° Southwest  Level Estimated
Wed 05:51:32 AM 55.4622 6.8343 204° Southwest  Level Estimated
Wed 05:52:32 AM 55.3651 6.7588 204° Southwest  Level Estimated
Wed 05:53:32 AM 55.2680 6.6836 204° Southwest  Level Estimated
Wed 05:54:32 AM 55.1708 6.6089 204° Southwest  Level Estimated
Wed 05:55:32 AM 55.0736 6.5345 204° Southwest  Level Estimated
Wed 05:56:32 AM 54.9764 6.4604 204° Southwest  Level Estimated
Wed 05:57:32 AM 54.8791 6.3868 203° Southwest  Level Estimated
Wed 05:58:32 AM 54.7817 6.3134 203° Southwest  Level Estimated
Wed 05:59:32 AM 54.6843 6.2405 203° Southwest  Level Estimated
Wed 06:00:32 AM 54.5869 6.1679 203° Southwest  Level Estimated
Wed 06:01:32 AM 54.4894 6.0956 203° Southwest  Level Estimated
Wed 06:02:32 AM 54.3919 6.0236 203° Southwest  Level Estimated
Wed 06:03:32 AM 54.2944 5.9521 203° Southwest  Level Estimated
Wed 06:04:32 AM 54.1968 5.8808 203° Southwest  Level Estimated
Wed 06:05:32 AM 54.0992 5.8099 203° Southwest  Level Estimated
Wed 06:06:32 AM 54.0015 5.7393 203° Southwest  Level Estimated
Wed 06:07:32 AM 53.9038 5.6691 203° Southwest  Level Estimated
Wed 06:08:32 AM 53.8060 5.5991 203° Southwest  Level Estimated
Wed 06:09:32 AM 53.7082 5.5295 203° Southwest  Level Estimated
Wed 06:10:32 AM 53.6104 5.4602 203° Southwest  Level Estimated
Wed 06:11:32 AM 53.5125 5.3913 203° Southwest  Level Estimated
Wed 06:12:32 AM 53.4146 5.3226 203° Southwest  Level Estimated
Wed 06:13:32 AM 53.3166 5.2543 203° Southwest  Level Estimated
Wed 06:14:32 AM 53.2186 5.1863 203° Southwest  Level Estimated
Wed 06:15:32 AM 53.1205 5.1186 202° Southwest  Level Estimated
Wed 06:16:32 AM 53.0225 5.0512 202° Southwest  Level Estimated
Wed 06:17:32 AM 52.9244 4.9841 202° Southwest  Level Estimated
Wed 06:18:32 AM 52.8262 4.9173 202° Southwest  Level Estimated
Wed 06:19:32 AM 52.7280 4.8509 202° Southwest  Level Estimated
Wed 06:20:32 AM 52.6298 4.7847 202° Southwest  Level Estimated
Wed 06:21:32 AM 52.5315 4.7188 202° Southwest  Level Estimated
Wed 06:22:32 AM 52.4332 4.6532 202° Southwest  Level Estimated
Wed 06:23:32 AM 52.3349 4.5879 202° Southwest  Level Estimated
Wed 06:24:32 AM 52.2365 4.5229 202° Southwest  Level Estimated
Wed 06:25:32 AM 52.1381 4.4582 202° Southwest  Level Estimated
Wed 06:26:32 AM 52.0397 4.3937 202° Southwest  Level Estimated
Wed 06:27:32 AM 51.9412 4.3296 202° Southwest  Level Estimated
Wed 06:28:32 AM 51.8427 4.2657 202° Southwest  Level Estimated
Wed 06:29:32 AM 51.7441 4.2021 202° Southwest  Level Estimated
Wed 06:30:32 AM 51.6455 4.1388 202° Southwest  Level Estimated
Wed 06:31:32 AM 51.5469 4.0758 202° Southwest  Level Estimated
Wed 06:32:32 AM 51.4483 4.0130 202° Southwest  Level Estimated
Wed 06:33:32 AM 51.3496 3.9505 202° Southwest  Level Estimated
Wed 06:34:32 AM 51.2509 3.8883 201° Southwest  Level Estimated
Wed 06:35:32 AM 51.1521 3.8263 201° Southwest  Level Estimated
Wed 06:36:32 AM 51.0533 3.7646 201° Southwest  Level Estimated
Wed 06:37:32 AM 50.9545 3.7032 201° Southwest  Level Estimated
Wed 06:38:32 AM 50.8557 3.6420 201° Southwest  Level Estimated
Wed 06:39:32 AM 50.7568 3.5811 201° Southwest  Level Estimated
Wed 06:40:32 AM 50.6579 3.5204 201° Southwest  Level Estimated
Wed 06:41:32 AM 50.5589 3.4600 201° Southwest  Level Estimated
Wed 06:42:32 AM 50.4600 3.3999 201° Southwest  Level Estimated
Wed 06:43:32 AM 50.3610 3.3400 201° Southwest  Level Estimated
Wed 06:44:32 AM 50.2620 3.2803 201° Southwest  Level Estimated
Wed 06:45:32 AM 50.1629 3.2209 201° Southwest  Level Estimated
Wed 06:46:32 AM 50.0638 3.1618 201° Southwest  Level Estimated
Wed 06:47:32 AM 49.9647 3.1028 201° Southwest  Level Estimated
Wed 06:48:32 AM 49.8655 3.0442 201° Southwest  Level Estimated
Wed 06:49:32 AM 49.7663 2.9857 201° Southwest  Level Estimated
Wed 06:50:32 AM 49.6671 2.9276 201° Southwest  Level Estimated
Wed 06:51:32 AM 49.5679 2.8696 201° Southwest  Level Estimated
Wed 06:52:32 AM 49.4686 2.8119 201° Southwest  Level Estimated
Wed 06:53:32 AM 49.3693 2.7544 201° Southwest  Level Estimated
Wed 06:54:32 AM 49.2700 2.6971 201° Southwest  Level Estimated
Wed 06:55:32 AM 49.1707 2.6401 201° Southwest  Level Estimated
Wed 06:56:32 AM 49.0713 2.5833 200° South  Level Estimated
Wed 06:57:32 AM 48.9719 2.5268 20° North  Level Estimated
Wed 06:58:32 AM 49.0713 2.5833 200° South  Level Estimated
Wed 06:59:32 AM 48.9719 2.5268 20° North  Level Estimated
Wed 07:00:32 AM 49.0713 2.5833 200° South  Level Estimated
Wed 07:01:32 AM 48.9719 2.5268 20° North  Level Estimated
Wed 07:02:32 AM 49.0713 2.5833 200° South  Level Estimated
Wed 07:03:32 AM 48.9719 2.5268 20° North  Level Estimated
Wed 07:04:32 AM 49.0713 2.5833 200° South  Level Estimated
Wed 07:05:32 AM 48.9719 2.5268 20° North  Level Estimated
Wed 07:06:32 AM 49.0713 2.5833 200° South  Level Estimated
Wed 07:07:32 AM 48.9719 2.5268 20° North  Level Estimated
Wed 07:08:32 AM 49.0713 2.5833 200° South  Level Estimated
Wed 07:09:32 AM 48.9719 2.5268 20° North  Level Estimated
Wed 07:10:32 AM 49.0713 2.5833 200° South  Level Estimated
Wed 07:11:32 AM 48.9719 2.5268 20° North  Level Estimated
Wed 07:12:32 AM 49.0713 2.5833 20° North  Level Estimated

Login

Don't have an account? Register now (free) for customized features, flight alerts, and more!